New Haven MSSI Station
| Date/Time | Air Temperature [°F] | Rel. Humidity [%] | Dew Point [°F] | Precipitation Type Lufft [logic] | Precipitation Intensity [mm/h] | Wind Direction [°] | Wind Speed (act) [mph] | Wind Speed (max) [mph] | Visibility [m] | Wind Chill Temperature [°F] |
| 9/4/2026 12:09:00 AM | 62.77 | 90.88 | 60.07 | no precipitation (0.00) | 0.00 | 0.00 | 0.00 | 0.00 | 3000.00 | 62.80 |
| 9/4/2026 12:19:00 AM | 62.77 | 91.12 | 60.14 | no precipitation (0.00) | 0.00 | 0.00 | 0.00 | 0.00 | 3000.00 | 62.81 |
| 9/4/2026 12:29:00 AM | 62.38 | 90.91 | 59.68 | no precipitation (0.00) | 0.00 | 0.00 | 0.00 | 1.05 | 3000.00 | 62.53 |
| 9/4/2026 12:39:00 AM | 62.40 | 91.15 | 59.78 | no precipitation (0.00) | 0.00 | 0.00 | 0.00 | 1.19 | 3000.00 | 62.44 |
| 9/4/2026 12:49:00 AM | 62.22 | 91.66 | 59.76 | no precipitation (0.00) | 0.00 | 0.00 | 0.00 | 0.00 | 3000.00 | 62.24 |
| 9/4/2026 12:59:00 AM | 62.11 | 91.70 | 59.67 | no precipitation (0.00) | 0.00 | 0.00 | 0.00 | 0.00 | 3000.00 | 62.19 |
| 9/4/2026 1:09:00 AM | 61.47 | 91.45 | 58.95 | no precipitation (0.00) | 0.00 | 0.00 | 0.00 | 0.00 | 3000.00 | 61.94 |
| 9/4/2026 1:19:00 AM | 61.67 | 91.81 | 59.27 | no precipitation (0.00) | 0.00 | 0.00 | 0.00 | 0.00 | 3000.00 | 61.69 |
| 9/4/2026 1:29:00 AM | 61.09 | 91.89 | 58.71 | no precipitation (0.00) | 0.00 | 0.00 | 0.00 | 0.00 | 3000.00 | 61.24 |
| 9/4/2026 1:39:00 AM | 61.50 | 92.23 | 59.22 | no precipitation (0.00) | 0.00 | 0.00 | 0.00 | 0.00 | 3000.00 | 61.49 |
| 9/4/2026 1:49:00 AM | 61.10 | 92.08 | 58.78 | no precipitation (0.00) | 0.00 | 0.00 | 0.00 | 0.00 | 3000.00 | 61.20 |
| 9/4/2026 1:59:00 AM | 60.94 | 92.29 | 58.68 | no precipitation (0.00) | 0.00 | 0.00 | 0.00 | 0.00 | 3000.00 | 60.95 |
| 9/4/2026 2:09:00 AM | 61.49 | 92.47 | 59.29 | no precipitation (0.00) | 0.00 | 0.00 | 0.00 | 0.00 | 3000.00 | 61.34 |
| 9/4/2026 2:19:00 AM | 61.29 | 92.50 | 59.09 | no precipitation (0.00) | 0.00 | 0.00 | 0.00 | 0.00 | 3000.00 | 61.38 |
| 9/4/2026 2:29:00 AM | 61.17 | 92.54 | 58.99 | no precipitation (0.00) | 0.00 | 0.00 | 0.00 | 0.87 | 3000.00 | 61.26 |
| 9/4/2026 2:39:00 AM | 61.31 | 92.98 | 59.26 | no precipitation (0.00) | 0.00 | 0.00 | 0.00 | 0.00 | 3000.00 | 61.21 |
| 9/4/2026 2:49:00 AM | 61.41 | 93.06 | 59.39 | no precipitation (0.00) | 0.00 | 0.00 | 0.00 | 1.04 | 3000.00 | 61.39 |
| 9/4/2026 2:59:00 AM | 61.67 | 93.25 | 59.70 | no precipitation (0.00) | 0.00 | 0.00 | 0.00 | 0.00 | 3000.00 | 61.68 |
| 9/4/2026 3:09:00 AM | 61.47 | 93.04 | 59.44 | no precipitation (0.00) | 0.00 | 0.00 | 0.00 | 0.00 | 3000.00 | 61.52 |
| 9/4/2026 3:19:00 AM | 60.31 | 92.87 | 58.24 | no precipitation (0.00) | 0.00 | 0.00 | 0.00 | 0.00 | 3000.00 | 60.57 |
| 9/4/2026 3:29:00 AM | 60.71 | 93.09 | 58.70 | no precipitation (0.00) | 0.00 | 0.00 | 0.00 | 0.00 | 3000.00 | 60.71 |
| 9/4/2026 3:39:00 AM | 60.71 | 92.97 | 58.66 | no precipitation (0.00) | 0.00 | 0.00 | 0.00 | 0.89 | 3000.00 | 60.87 |
| 9/4/2026 3:49:00 AM | 60.52 | 93.03 | 58.50 | no precipitation (0.00) | 0.00 | 0.00 | 0.00 | 0.00 | 3000.00 | 60.68 |
| 9/4/2026 3:59:00 AM | 60.72 | 93.36 | 58.79 | no precipitation (0.00) | 0.00 | 0.00 | 0.00 | 0.76 | 3000.00 | 60.63 |
| 9/4/2026 4:09:00 AM | 60.92 | 93.45 | 59.01 | no precipitation (0.00) | 0.00 | 164.80 | 0.69 | 0.83 | 3000.00 | 60.92 |
| 9/4/2026 4:19:00 AM | 61.17 | 93.65 | 59.32 | no precipitation (0.00) | 0.00 | 0.00 | 0.00 | 0.00 | 3000.00 | 61.10 |
| 9/4/2026 4:29:00 AM | 60.79 | 93.13 | 58.79 | no precipitation (0.00) | 0.00 | 0.00 | 0.00 | 1.09 | 3000.00 | 60.96 |
| 9/4/2026 4:39:00 AM | 60.91 | 93.48 | 59.02 | no precipitation (0.00) | 0.00 | 0.00 | 0.00 | 0.68 | 3000.00 | 60.91 |
| 9/4/2026 4:49:00 AM | 60.99 | 93.50 | 59.10 | no precipitation (0.00) | 0.00 | 0.00 | 0.00 | 0.78 | 3000.00 | 61.10 |
| 9/4/2026 4:59:00 AM | 60.90 | 93.45 | 59.00 | no precipitation (0.00) | 0.00 | 0.00 | 0.00 | 0.00 | 3000.00 | 60.91 |
| 9/4/2026 5:09:00 AM | 60.95 | 93.37 | 59.03 | no precipitation (0.00) | 0.00 | 0.00 | 0.00 | 0.00 | 3000.00 | 61.11 |
| 9/4/2026 5:19:00 AM | 61.10 | 93.61 | 59.24 | no precipitation (0.00) | 0.00 | 0.00 | 0.00 | 0.00 | 3000.00 | 60.99 |
| 9/4/2026 5:29:00 AM | 60.50 | 93.21 | 58.53 | no precipitation (0.00) | 0.00 | 0.00 | 0.00 | 0.00 | 3000.00 | 60.65 |
| 9/4/2026 5:39:00 AM | 60.52 | 93.27 | 58.57 | no precipitation (0.00) | 0.00 | 0.00 | 0.00 | 0.00 | 3000.00 | 60.67 |
| 9/4/2026 5:49:00 AM | 60.37 | 93.30 | 58.43 | no precipitation (0.00) | 0.00 | 0.00 | 0.00 | 1.11 | 3000.00 | 60.57 |
| 9/4/2026 5:59:00 AM | 59.59 | 93.26 | 57.64 | no precipitation (0.00) | 0.00 | 0.00 | 0.00 | 0.00 | 3000.00 | 59.73 |
| 9/4/2026 6:09:00 AM | 59.23 | 93.56 | 57.37 | no precipitation (0.00) | 0.00 | 0.00 | 0.00 | 0.75 | 3000.00 | 59.34 |
| 9/4/2026 6:19:00 AM | 59.43 | 93.66 | 57.60 | no precipitation (0.00) | 0.00 | 75.17 | 0.75 | 1.10 | 3000.00 | 59.50 |
| 9/4/2026 6:29:00 AM | 59.06 | 93.74 | 57.25 | no precipitation (0.00) | 0.00 | 0.00 | 0.00 | 1.09 | 3000.00 | 59.03 |
| 9/4/2026 6:39:00 AM | 58.48 | 93.71 | 56.67 | no precipitation (0.00) | 0.00 | 275.03 | 0.79 | 1.04 | 3000.00 | 58.98 |
| 9/4/2026 6:49:00 AM | 58.33 | 94.10 | 56.64 | no precipitation (0.00) | 0.00 | 0.00 | 0.00 | 0.78 | 3000.00 | 58.15 |
| 9/4/2026 6:59:00 AM | 58.89 | 94.23 | 57.23 | no precipitation (0.00) | 0.00 | 0.00 | 0.00 | 1.05 | 3000.00 | 58.76 |
| 9/4/2026 7:09:00 AM | 58.87 | 94.40 | 57.27 | no precipitation (0.00) | 0.00 | 0.00 | 0.00 | 0.00 | 3000.00 | 58.94 |
| 9/4/2026 7:19:00 AM | 58.69 | 94.28 | 57.05 | no precipitation (0.00) | 0.00 | 0.00 | 0.00 | 0.00 | 3000.00 | 58.66 |
| 9/4/2026 7:29:00 AM | 59.55 | 94.52 | 57.98 | no precipitation (0.00) | 0.00 | 0.00 | 0.00 | 0.00 | 3000.00 | 59.41 |
| 9/4/2026 7:39:00 AM | 60.38 | 94.57 | 58.82 | no precipitation (0.00) | 0.00 | 0.00 | 0.00 | 0.84 | 3000.00 | 59.97 |
| 9/4/2026 7:49:00 AM | 61.07 | 94.59 | 59.51 | no precipitation (0.00) | 0.00 | 0.00 | 0.00 | 0.00 | 3000.00 | 60.82 |
| 9/4/2026 7:59:00 AM | 61.65 | 94.45 | 60.04 | no precipitation (0.00) | 0.00 | 0.00 | 0.00 | 0.00 | 3000.00 | 61.61 |
| 9/4/2026 8:09:00 AM | 62.58 | 94.48 | 60.97 | no precipitation (0.00) | 0.00 | 0.00 | 0.00 | 1.01 | 3000.00 | 62.25 |
| 9/4/2026 8:19:00 AM | 63.64 | 94.30 | 61.97 | no precipitation (0.00) | 0.00 | 0.00 | 0.00 | 1.13 | 3000.00 | 63.21 |
| 9/4/2026 8:29:00 AM | 64.53 | 94.05 | 62.78 | no precipitation (0.00) | 0.00 | 0.00 | 0.00 | 0.69 | 3000.00 | 64.54 |
| 9/4/2026 8:39:00 AM | 65.22 | 93.56 | 63.31 | no precipitation (0.00) | 0.00 | 0.00 | 0.00 | 0.00 | 3000.00 | 65.07 |
| 9/4/2026 8:59:00 AM | 66.41 | 91.92 | 63.99 | no precipitation (0.00) | 0.00 | 0.00 | 0.00 | 0.86 | 3000.00 | 66.33 |
| 9/4/2026 9:09:00 AM | 66.99 | 91.11 | 64.30 | no precipitation (0.00) | 0.00 | 238.74 | 1.25 | 1.70 | 3000.00 | 66.89 |
| 9/4/2026 9:19:00 AM | 67.61 | 89.76 | 64.49 | no precipitation (0.00) | 0.00 | 217.98 | 0.97 | 1.11 | 3000.00 | 67.32 |
| 9/4/2026 9:29:00 AM | 68.20 | 88.14 | 64.55 | no precipitation (0.00) | 0.00 | 0.00 | 0.00 | 0.72 | 3000.00 | 68.13 |
| 9/4/2026 9:39:00 AM | 68.60 | 86.21 | 64.32 | no precipitation (0.00) | 0.00 | 0.00 | 0.00 | 0.00 | 3000.00 | 68.54 |
| 9/4/2026 9:49:00 AM | 68.89 | 83.13 | 63.56 | no precipitation (0.00) | 0.00 | 0.00 | 0.00 | 0.99 | 3000.00 | 68.77 |
| 9/4/2026 9:59:00 AM | 69.59 | 80.50 | 63.32 | no precipitation (0.00) | 0.00 | 0.00 | 0.00 | 0.00 | 3000.00 | 69.55 |
| 9/4/2026 10:09:00 AM | 70.67 | 78.15 | 63.52 | no precipitation (0.00) | 0.00 | 0.00 | 0.00 | 1.20 | 3000.00 | 70.28 |
| 9/4/2026 10:19:00 AM | 71.13 | 76.04 | 63.19 | no precipitation (0.00) | 0.00 | 0.00 | 0.00 | 0.99 | 3000.00 | 70.79 |
| 9/4/2026 10:29:00 AM | 72.37 | 74.15 | 63.67 | no precipitation (0.00) | 0.00 | 261.51 | 1.05 | 1.18 | 3000.00 | 72.33 |
| 9/4/2026 10:39:00 AM | 72.55 | 71.38 | 62.76 | no precipitation (0.00) | 0.00 | 0.00 | 0.00 | 1.18 | 3000.00 | 72.50 |
| 9/4/2026 10:49:00 AM | 72.60 | 72.30 | 63.17 | no precipitation (0.00) | 0.00 | 0.00 | 0.00 | 1.01 | 3000.00 | 72.68 |
| 9/4/2026 10:59:00 AM | 72.79 | 71.77 | 63.15 | no precipitation (0.00) | 0.00 | 270.46 | 0.92 | 1.16 | 3000.00 | 72.73 |
| 9/4/2026 11:09:00 AM | 73.94 | 67.55 | 62.52 | no precipitation (0.00) | 0.00 | 268.49 | 1.01 | 1.59 | 3000.00 | 73.53 |
| 9/4/2026 11:19:00 AM | 75.84 | 63.47 | 62.55 | no precipitation (0.00) | 0.00 | 266.05 | 1.26 | 1.64 | 3000.00 | 75.18 |
| 9/4/2026 11:29:00 AM | 77.51 | 63.26 | 64.03 | no precipitation (0.00) | 0.00 | 0.00 | 0.00 | 1.92 | 3000.00 | 77.43 |
| 9/4/2026 11:39:00 AM | 77.28 | 61.80 | 63.15 | no precipitation (0.00) | 0.00 | 0.00 | 0.00 | 1.94 | 3000.00 | 77.38 |
| 9/4/2026 11:49:00 AM | 77.62 | 59.29 | 62.29 | no precipitation (0.00) | 0.00 | 268.69 | 1.10 | 1.86 | 3000.00 | 77.56 |
| 9/4/2026 11:59:00 AM | 76.49 | 63.27 | 63.08 | no precipitation (0.00) | 0.00 | 270.68 | 1.38 | 2.58 | 3000.00 | 76.77 |
| 9/4/2026 12:09:00 PM | 75.97 | 61.47 | 61.77 | no precipitation (0.00) | 0.00 | 0.00 | 0.00 | 0.00 | 3000.00 | 76.13 |
| 9/4/2026 12:19:00 PM | 75.66 | 64.73 | 62.94 | no precipitation (0.00) | 0.00 | 0.00 | 0.00 | 1.32 | 3000.00 | 75.80 |
| 9/4/2026 12:29:00 PM | 76.02 | 63.43 | 62.70 | no precipitation (0.00) | 0.00 | 273.22 | 1.40 | 1.84 | 3000.00 | 76.01 |
| 9/4/2026 12:39:00 PM | 75.90 | 63.39 | 62.57 | no precipitation (0.00) | 0.00 | 0.00 | 0.00 | 1.69 | 3000.00 | 75.86 |
| 9/4/2026 12:49:00 PM | 74.99 | 63.88 | 61.93 | no precipitation (0.00) | 0.00 | 0.00 | 0.00 | 1.40 | 3000.00 | 75.53 |
| 9/4/2026 12:59:00 PM | 75.02 | 66.41 | 63.06 | no precipitation (0.00) | 0.00 | 0.00 | 0.00 | 1.22 | 3000.00 | 75.11 |
| 9/4/2026 1:09:00 PM | 75.73 | 65.29 | 63.25 | no precipitation (0.00) | 0.00 | 0.00 | 0.00 | 1.40 | 3000.00 | 75.22 |
| 9/4/2026 1:19:00 PM | 77.06 | 64.55 | 64.19 | no precipitation (0.00) | 0.00 | 0.00 | 0.00 | 1.96 | 3000.00 | 76.74 |
| 9/4/2026 1:26:00 PM | 78.06 | 60.72 | 63.38 | no precipitation (0.00) | 0.00 | 210.56 | 0.69 | 1.13 | Error 0x111 - sensor error | 78.06 |
| 9/4/2026 1:29:00 PM | 78.03 | 56.97 | 61.54 | no precipitation (0.00) | 0.00 | 0.00 | 0.00 | 2.58 | 3000.00 | 78.19 |
| 9/4/2026 1:34:00 PM | 78.09 | 58.37 | 62.29 | no precipitation (0.00) | 0.00 | 278.72 | 1.47 | 1.80 | 3000.00 | 78.22 |
| 9/4/2026 1:39:00 PM | 77.71 | 60.21 | 62.81 | no precipitation (0.00) | 0.00 | 270.93 | 0.82 | 1.79 | 3000.00 | 78.01 |
| 9/4/2026 1:44:00 PM | 77.07 | 61.37 | 62.76 | no precipitation (0.00) | 0.00 | 0.00 | 0.00 | 0.00 | 3000.00 | 77.42 |
| 9/4/2026 1:49:00 PM | 77.21 | 63.38 | 63.81 | no precipitation (0.00) | 0.00 | 269.68 | 1.30 | 1.57 | 3000.00 | 77.29 |
| 9/4/2026 1:54:00 PM | 77.15 | 65.21 | 64.56 | no precipitation (0.00) | 0.00 | 271.55 | 0.70 | 0.93 | 3000.00 | 77.16 |
| 9/4/2026 1:59:00 PM | 77.03 | 64.48 | 64.13 | no precipitation (0.00) | 0.00 | 275.64 | 1.34 | 2.16 | 3000.00 | 77.13 |
| 9/4/2026 2:04:00 PM | 75.81 | 61.23 | 61.51 | no precipitation (0.00) | 0.00 | 0.00 | 0.00 | 0.77 | 3000.00 | 76.66 |
| 9/4/2026 2:09:00 PM | 76.32 | 64.92 | 63.65 | no precipitation (0.00) | 0.00 | 0.00 | 0.00 | 0.71 | 3000.00 | 76.18 |
| 9/4/2026 2:14:00 PM | 75.95 | 65.93 | 63.74 | no precipitation (0.00) | 0.00 | 0.00 | 0.00 | 1.17 | 3000.00 | 76.13 |
| 9/4/2026 2:19:00 PM | 75.54 | 65.21 | 63.03 | no precipitation (0.00) | 0.00 | 0.00 | 0.00 | 0.96 | 3000.00 | 75.90 |
| 9/4/2026 2:24:00 PM | 75.55 | 63.94 | 62.49 | no precipitation (0.00) | 0.00 | 0.00 | 0.00 | 0.00 | 3000.00 | 75.64 |
| 9/4/2026 2:44:00 PM | 75.72 | 64.89 | 63.07 | no precipitation (0.00) | 0.00 | 0.00 | 0.00 | 0.96 | 3000.00 | 75.73 |
| 9/4/2026 2:49:00 PM | 75.72 | 64.52 | 62.91 | no precipitation (0.00) | 0.00 | 0.00 | 0.00 | 0.00 | 3000.00 | 75.81 |
| 9/4/2026 2:54:00 PM | 76.09 | 65.27 | 63.59 | no precipitation (0.00) | 0.00 | 0.00 | 0.00 | 0.00 | 3000.00 | 75.95 |
| 9/4/2026 2:59:00 PM | 75.91 | 66.36 | 63.88 | no precipitation (0.00) | 0.00 | 0.00 | 0.00 | 0.78 | 3000.00 | 76.06 |
| 9/4/2026 3:04:00 PM | 76.10 | 66.17 | 63.98 | no precipitation (0.00) | 0.00 | 0.00 | 0.00 | 0.72 | 3000.00 | 76.06 |
| 9/4/2026 3:09:00 PM | 75.82 | 64.99 | 63.21 | no precipitation (0.00) | 0.00 | 0.00 | 0.00 | 0.00 | 3000.00 | 76.06 |
| 9/4/2026 3:14:00 PM | 75.73 | 67.33 | 64.13 | no precipitation (0.00) | 0.00 | 0.00 | 0.00 | 0.74 | 3000.00 | 75.79 |
| 9/4/2026 3:19:00 PM | 75.40 | 64.39 | 62.54 | no precipitation (0.00) | 0.00 | 0.00 | 0.00 | 0.00 | 3000.00 | 75.71 |
| 9/4/2026 3:24:00 PM | 75.64 | 65.22 | 63.13 | no precipitation (0.00) | 0.00 | 0.00 | 0.00 | 0.00 | 3000.00 | 75.60 |
| 9/4/2026 3:29:00 PM | 75.76 | 66.01 | 63.59 | no precipitation (0.00) | 0.00 | 0.00 | 0.00 | 0.00 | 3000.00 | 75.86 |
| 9/4/2026 3:34:00 PM | 76.64 | 66.79 | 64.77 | no precipitation (0.00) | 0.00 | 165.29 | 1.52 | 1.93 | 3000.00 | 76.12 |
| 9/4/2026 3:39:00 PM | 76.44 | 64.88 | 63.74 | no precipitation (0.00) | 0.00 | 269.13 | 1.14 | 1.68 | 3000.00 | 76.43 |
| 9/4/2026 3:44:00 PM | 75.19 | 66.34 | 63.19 | no precipitation (0.00) | 0.00 | 0.00 | 0.00 | 1.34 | 3000.00 | 75.50 |
| 9/4/2026 3:49:00 PM | 75.06 | 67.89 | 63.73 | no precipitation (0.00) | 0.00 | 0.00 | 0.00 | 0.78 | 3000.00 | 75.32 |
| 9/4/2026 3:54:00 PM | 74.89 | 66.24 | 62.87 | no precipitation (0.00) | 0.00 | 0.00 | 0.00 | 1.22 | 3000.00 | 75.10 |
| 9/4/2026 3:59:00 PM | 74.69 | 65.85 | 62.50 | no precipitation (0.00) | 0.00 | 0.00 | 0.00 | 1.15 | 3000.00 | 74.82 |
| 9/4/2026 4:04:00 PM | 74.71 | 68.22 | 63.53 | no precipitation (0.00) | 0.00 | 0.00 | 0.00 | 1.11 | 3000.00 | 74.77 |
| 9/4/2026 4:09:00 PM | 74.36 | 67.72 | 62.99 | no precipitation (0.00) | 0.00 | 0.00 | 0.00 | 1.11 | 3000.00 | 74.67 |
| 9/4/2026 4:14:00 PM | 74.00 | 68.50 | 62.98 | no precipitation (0.00) | 0.00 | 0.00 | 0.00 | 0.00 | 3000.00 | 74.19 |
| 9/4/2026 4:19:00 PM | 74.38 | 68.30 | 63.25 | no precipitation (0.00) | 0.00 | 267.94 | 0.82 | 1.00 | 3000.00 | 74.24 |
| 9/4/2026 4:24:00 PM | 74.38 | 68.79 | 63.46 | no precipitation (0.00) | 0.00 | 0.00 | 0.00 | 1.00 | 3000.00 | 74.29 |
| 9/4/2026 4:29:00 PM | 74.60 | 69.71 | 64.05 | no precipitation (0.00) | 0.00 | 0.00 | 0.00 | 1.16 | 3000.00 | 74.58 |
| 9/4/2026 4:34:00 PM | 74.92 | 68.77 | 63.97 | no precipitation (0.00) | 0.00 | 243.64 | 0.88 | 1.00 | 3000.00 | 74.68 |
| 9/4/2026 4:39:00 PM | 74.71 | 66.62 | 62.86 | no precipitation (0.00) | 0.00 | 0.00 | 0.00 | 0.80 | 3000.00 | 74.74 |
| 9/4/2026 4:44:00 PM | 74.80 | 66.54 | 62.90 | no precipitation (0.00) | 0.00 | 266.93 | 0.70 | 1.56 | 3000.00 | 74.79 |
| 9/4/2026 4:49:00 PM | 74.80 | 66.66 | 62.96 | no precipitation (0.00) | 0.00 | 0.00 | 0.00 | 0.99 | 3000.00 | 74.81 |
| 9/4/2026 4:54:00 PM | 74.89 | 67.14 | 63.25 | no precipitation (0.00) | 0.00 | 0.00 | 0.00 | 1.14 | 3000.00 | 74.84 |
| 9/4/2026 4:59:00 PM | 74.54 | 67.28 | 62.97 | no precipitation (0.00) | 0.00 | 0.00 | 0.00 | 0.00 | 3000.00 | 74.62 |
| 9/4/2026 5:04:00 PM | 74.91 | 67.72 | 63.51 | no precipitation (0.00) | 0.00 | 0.00 | 0.00 | 0.78 | 3000.00 | 74.70 |
| 9/4/2026 5:09:00 PM | 74.56 | 66.02 | 62.46 | no precipitation (0.00) | 0.00 | 0.00 | 0.00 | 0.00 | 3000.00 | 74.70 |
| 9/4/2026 5:14:00 PM | 74.20 | 67.02 | 62.55 | no precipitation (0.00) | 0.00 | 0.00 | 0.00 | 1.13 | 3000.00 | 74.33 |
| 9/4/2026 5:19:00 PM | 73.69 | 68.25 | 62.57 | no precipitation (0.00) | 0.00 | 280.86 | 2.35 | 2.81 | 3000.00 | 74.02 |
| 9/4/2026 5:24:00 PM | 72.51 | 67.74 | 61.23 | no precipitation (0.00) | 0.00 | 259.37 | 1.10 | 1.41 | 3000.00 | 73.36 |
| 9/4/2026 5:29:00 PM | 71.94 | 68.25 | 60.91 | no precipitation (0.00) | 0.00 | 260.56 | 0.78 | 1.17 | 3000.00 | 72.07 |
| 9/4/2026 5:34:00 PM | 71.82 | 68.73 | 60.98 | no precipitation (0.00) | 0.00 | 279.74 | 1.03 | 1.55 | 3000.00 | 71.93 |
| 9/4/2026 5:39:00 PM | 71.82 | 68.85 | 61.03 | no precipitation (0.00) | 0.00 | 0.00 | 0.00 | 0.85 | 3000.00 | 71.79 |
| 9/4/2026 5:44:00 PM | 71.82 | 70.07 | 61.54 | no precipitation (0.00) | 0.00 | 0.00 | 0.00 | 0.00 | 3000.00 | 71.88 |
| 9/4/2026 5:49:00 PM | 71.83 | 70.19 | 61.59 | no precipitation (0.00) | 0.00 | 0.00 | 0.00 | 0.00 | 3000.00 | 71.85 |
| 9/4/2026 5:54:00 PM | 71.83 | 70.47 | 61.70 | no precipitation (0.00) | 0.00 | 0.00 | 0.00 | 0.83 | 3000.00 | 71.82 |
| 9/4/2026 5:59:00 PM | 71.45 | 70.33 | 61.28 | no precipitation (0.00) | 0.00 | 277.15 | 1.46 | 1.63 | 3000.00 | 71.55 |
| 9/4/2026 6:04:00 PM | 71.29 | 70.37 | 61.14 | no precipitation (0.00) | 0.00 | 0.00 | 0.00 | 0.99 | 3000.00 | 71.38 |
| 9/4/2026 6:09:00 PM | 71.14 | 70.65 | 61.12 | no precipitation (0.00) | 0.00 | 276.54 | 0.74 | 1.29 | 3000.00 | 71.27 |
| 9/4/2026 6:14:00 PM | 70.96 | 71.21 | 61.16 | no precipitation (0.00) | 0.00 | 170.24 | 0.92 | 1.77 | 3000.00 | 70.99 |
| 9/4/2026 6:19:00 PM | 70.62 | 71.86 | 61.09 | no precipitation (0.00) | 0.00 | 267.48 | 2.24 | 3.16 | 3000.00 | 70.79 |
| 9/4/2026 6:24:00 PM | 70.29 | 73.09 | 61.26 | no precipitation (0.00) | 0.00 | 0.00 | 0.00 | 2.19 | 3000.00 | 70.54 |
| 9/4/2026 6:29:00 PM | 69.57 | 75.68 | 61.55 | no precipitation (0.00) | 0.00 | 279.58 | 1.40 | 1.87 | 3000.00 | 69.76 |
| 9/4/2026 6:34:00 PM | 68.80 | 77.05 | 61.31 | no precipitation (0.00) | 0.00 | 273.80 | 0.87 | 1.39 | 3000.00 | 69.28 |
| 9/4/2026 6:39:00 PM | 68.34 | 77.59 | 61.06 | no precipitation (0.00) | 0.00 | 0.00 | 0.00 | 1.39 | 3000.00 | 68.75 |
| 9/4/2026 6:44:00 PM | 68.16 | 78.50 | 61.22 | no precipitation (0.00) | 0.00 | 0.00 | 0.00 | 1.22 | 3000.00 | 68.16 |
| 9/4/2026 6:49:00 PM | 68.17 | 78.98 | 61.40 | no precipitation (0.00) | 0.00 | 191.34 | 0.69 | 1.11 | 3000.00 | 68.17 |
| 9/4/2026 6:54:00 PM | 68.36 | 79.48 | 61.76 | no precipitation (0.00) | 0.00 | 0.00 | 0.00 | 0.71 | 3000.00 | 68.19 |
| 9/4/2026 6:59:00 PM | 68.16 | 79.31 | 61.50 | no precipitation (0.00) | 0.00 | 0.00 | 0.00 | 0.83 | 3000.00 | 68.24 |
| 9/4/2026 7:04:00 PM | 68.16 | 79.37 | 61.53 | no precipitation (0.00) | 0.00 | 263.02 | 0.81 | 1.00 | 3000.00 | 68.19 |
| 9/4/2026 7:09:00 PM | 67.78 | 78.47 | 60.83 | no precipitation (0.00) | 0.00 | 0.00 | 0.00 | 1.46 | 3000.00 | 68.05 |
| 9/4/2026 7:14:00 PM | 67.60 | 78.84 | 60.80 | no precipitation (0.00) | 0.00 | 277.20 | 1.02 | 1.39 | 3000.00 | 67.71 |
| 9/4/2026 7:19:00 PM | 67.46 | 79.30 | 60.83 | no precipitation (0.00) | 0.00 | 277.10 | 0.96 | 2.09 | 3000.00 | 67.62 |
| 9/4/2026 7:24:00 PM | 67.46 | 79.99 | 61.07 | no precipitation (0.00) | 0.00 | 277.89 | 1.19 | 1.62 | 3000.00 | 67.51 |
| 9/4/2026 7:29:00 PM | 67.09 | 80.17 | 60.77 | no precipitation (0.00) | 0.00 | 278.63 | 1.32 | 1.63 | 3000.00 | 67.16 |
| 9/4/2026 7:34:00 PM | 67.08 | 80.50 | 60.88 | no precipitation (0.00) | 0.00 | 0.00 | 0.00 | 0.83 | 3000.00 | 67.11 |
| 9/4/2026 7:39:00 PM | 67.29 | 80.62 | 61.13 | no precipitation (0.00) | 0.00 | 0.00 | 0.00 | 0.00 | 3000.00 | 67.14 |
| 9/4/2026 7:44:00 PM | 67.09 | 80.29 | 60.82 | no precipitation (0.00) | 0.00 | 0.00 | 0.00 | 0.75 | 3000.00 | 67.26 |
| 9/4/2026 7:49:00 PM | 66.91 | 79.97 | 60.52 | no precipitation (0.00) | 0.00 | 0.00 | 0.00 | 0.72 | 3000.00 | 67.04 |
| 9/4/2026 7:54:00 PM | 66.73 | 79.67 | 60.25 | no precipitation (0.00) | 0.00 | 144.49 | 1.00 | 1.12 | 3000.00 | 66.82 |
| 9/4/2026 7:59:00 PM | 66.54 | 79.80 | 60.11 | no precipitation (0.00) | 0.00 | 0.00 | 0.00 | 0.00 | 3000.00 | 66.56 |
| 9/4/2026 8:04:00 PM | 66.74 | 80.06 | 60.40 | no precipitation (0.00) | 0.00 | 0.00 | 0.00 | 0.00 | 3000.00 | 66.62 |
| 9/4/2026 8:09:00 PM | 66.80 | 79.86 | 60.38 | no precipitation (0.00) | 0.00 | 0.00 | 0.00 | 0.00 | 3000.00 | 66.75 |
| 9/4/2026 8:14:00 PM | 66.55 | 79.95 | 60.17 | no precipitation (0.00) | 0.00 | 0.00 | 0.00 | 0.69 | 3000.00 | 66.67 |
| 9/4/2026 8:19:00 PM | 66.56 | 80.07 | 60.22 | no precipitation (0.00) | 0.00 | 0.00 | 0.00 | 0.00 | 3000.00 | 66.60 |
| 9/4/2026 8:24:00 PM | 66.57 | 79.92 | 60.17 | no precipitation (0.00) | 0.00 | 0.00 | 0.00 | 0.00 | 3000.00 | 66.56 |
| 9/4/2026 8:29:00 PM | 66.37 | 80.28 | 60.11 | no precipitation (0.00) | 0.00 | 0.00 | 0.00 | 0.88 | 3000.00 | 66.45 |
| 9/4/2026 8:34:00 PM | 66.38 | 80.49 | 60.19 | no precipitation (0.00) | 0.00 | 0.00 | 0.00 | 0.00 | 3000.00 | 66.41 |
| 9/4/2026 8:39:00 PM | 66.22 | 80.38 | 60.00 | no precipitation (0.00) | 0.00 | 0.00 | 0.00 | 0.79 | 3000.00 | 66.37 |
| 9/4/2026 8:44:00 PM | 66.00 | 80.38 | 59.78 | no precipitation (0.00) | 0.00 | 0.00 | 0.00 | 0.00 | 3000.00 | 66.10 |
| 9/4/2026 8:49:00 PM | 66.34 | 80.40 | 60.12 | no precipitation (0.00) | 0.00 | 0.00 | 0.00 | 0.00 | 3000.00 | 66.17 |
| 9/4/2026 8:54:00 PM | 66.39 | 80.04 | 60.04 | no precipitation (0.00) | 0.00 | 0.00 | 0.00 | 0.00 | 3000.00 | 66.30 |
| 9/4/2026 8:59:00 PM | 66.18 | 80.07 | 59.86 | no precipitation (0.00) | 0.00 | 0.00 | 0.00 | 0.00 | 3000.00 | 66.25 |
| 9/4/2026 9:04:00 PM | 66.38 | 79.98 | 60.01 | no precipitation (0.00) | 0.00 | 0.00 | 0.00 | 0.00 | 3000.00 | 66.30 |
| 9/4/2026 9:09:00 PM | 66.57 | 79.71 | 60.10 | no precipitation (0.00) | 0.00 | 0.00 | 0.00 | 0.00 | 3000.00 | 66.42 |
| 9/4/2026 9:14:00 PM | 66.37 | 80.07 | 60.04 | no precipitation (0.00) | 0.00 | 0.00 | 0.00 | 0.91 | 3000.00 | 66.44 |
| 9/4/2026 9:19:00 PM | 66.57 | 80.10 | 60.24 | no precipitation (0.00) | 0.00 | 0.00 | 0.00 | 0.88 | 3000.00 | 66.44 |
| 9/4/2026 9:24:00 PM | 66.57 | 80.01 | 60.21 | no precipitation (0.00) | 0.00 | 0.00 | 0.00 | 0.70 | 3000.00 | 66.49 |
| 9/4/2026 9:29:00 PM | 66.37 | 80.55 | 60.20 | no precipitation (0.00) | 0.00 | 0.00 | 0.00 | 0.90 | 3000.00 | 66.50 |
| 9/4/2026 9:34:00 PM | 66.38 | 81.03 | 60.38 | no precipitation (0.00) | 0.00 | 151.24 | 0.88 | 1.00 | 3000.00 | 66.43 |
| 9/4/2026 9:39:00 PM | 66.20 | 81.06 | 60.21 | no precipitation (0.00) | 0.00 | 0.00 | 0.00 | 0.92 | 3000.00 | 66.30 |
| 9/4/2026 9:44:00 PM | 66.19 | 81.09 | 60.22 | no precipitation (0.00) | 0.00 | 0.00 | 0.00 | 0.90 | 3000.00 | 66.20 |
| 9/4/2026 9:49:00 PM | 66.25 | 81.22 | 60.32 | no precipitation (0.00) | 0.00 | 0.00 | 0.00 | 0.88 | 3000.00 | 66.25 |
| 9/4/2026 9:54:00 PM | 66.04 | 81.34 | 60.15 | no precipitation (0.00) | 0.00 | 0.00 | 0.00 | 0.72 | 3000.00 | 66.23 |
| 9/4/2026 9:59:00 PM | 66.01 | 81.57 | 60.21 | no precipitation (0.00) | 0.00 | 0.00 | 0.00 | 0.97 | 3000.00 | 66.08 |
| 9/4/2026 10:04:00 PM | 66.22 | 81.99 | 60.55 | no precipitation (0.00) | 0.00 | 0.00 | 0.00 | 0.00 | 3000.00 | 66.08 |
| 9/4/2026 10:09:00 PM | 66.04 | 81.91 | 60.35 | no precipitation (0.00) | 0.00 | 0.00 | 0.00 | 0.00 | 3000.00 | 66.11 |
| 9/4/2026 10:14:00 PM | 65.67 | 82.72 | 60.27 | no precipitation (0.00) | 0.00 | 0.00 | 0.00 | 0.00 | 3000.00 | 65.79 |
| 9/4/2026 10:19:00 PM | 65.77 | 83.30 | 60.56 | no precipitation (0.00) | 0.00 | 0.00 | 0.00 | 0.00 | 3000.00 | 65.77 |
| 9/4/2026 10:24:00 PM | 65.52 | 83.44 | 60.36 | no precipitation (0.00) | 0.00 | 0.00 | 0.00 | 0.00 | 3000.00 | 65.66 |
| 9/4/2026 10:29:00 PM | 64.96 | 84.32 | 60.11 | no precipitation (0.00) | 0.00 | 0.00 | 0.00 | 0.00 | 3000.00 | 65.07 |
| 9/4/2026 10:34:00 PM | 64.84 | 84.87 | 60.18 | no precipitation (0.00) | 0.00 | 180.81 | 0.74 | 0.88 | 3000.00 | 64.97 |
| 9/4/2026 10:39:00 PM | 64.41 | 85.01 | 59.80 | no precipitation (0.00) | 0.00 | 0.00 | 0.00 | 0.76 | 3000.00 | 64.75 |
| 9/4/2026 10:44:00 PM | 64.06 | 85.55 | 59.64 | no precipitation (0.00) | 0.00 | 0.00 | 0.00 | 0.83 | 3000.00 | 64.24 |
| 9/4/2026 10:49:00 PM | 64.24 | 86.27 | 60.05 | no precipitation (0.00) | 0.00 | 0.00 | 0.00 | 0.00 | 3000.00 | 64.17 |
| 9/4/2026 10:54:00 PM | 64.25 | 86.24 | 60.05 | no precipitation (0.00) | 0.00 | 0.00 | 0.00 | 0.00 | 3000.00 | 64.17 |
| 9/4/2026 10:59:00 PM | 63.87 | 86.33 | 59.71 | no precipitation (0.00) | 0.00 | 0.00 | 0.00 | 0.81 | 3000.00 | 63.95 |
| 9/4/2026 11:04:00 PM | 63.70 | 86.96 | 59.74 | no precipitation (0.00) | 0.00 | 0.00 | 0.00 | 0.89 | 3000.00 | 63.79 |
| 9/4/2026 11:09:00 PM | 63.52 | 87.17 | 59.64 | no precipitation (0.00) | 0.00 | 0.00 | 0.00 | 0.88 | 3000.00 | 63.63 |
| 9/4/2026 11:14:00 PM | 63.34 | 87.68 | 59.62 | no precipitation (0.00) | 0.00 | 0.00 | 0.00 | 0.00 | 3000.00 | 63.36 |
| 9/4/2026 11:19:00 PM | 62.96 | 87.35 | 59.14 | no precipitation (0.00) | 0.00 | 0.00 | 0.00 | 0.97 | 3000.00 | 63.29 |